createdAt,value
2023-04-28T00:01:04.712Z,6.23
2023-04-28T00:04:15.529Z,6.25
2023-04-28T00:07:41.872Z,6.29
2023-04-28T00:10:49.335Z,6.23
2023-04-28T00:14:05.653Z,6.32
2023-04-28T00:17:23.333Z,6.29
2023-04-28T00:21:01.726Z,6.29
2023-04-28T00:28:16.138Z,6.31
2023-04-28T00:31:43.120Z,6.31
2023-04-28T00:35:19.788Z,6.26
2023-04-28T00:38:56.500Z,6.29
2023-04-28T00:42:19.857Z,6.28
2023-04-28T00:45:56.635Z,6.23
2023-04-28T00:49:19.977Z,6.23
2023-04-28T00:52:29.293Z,6.22
2023-04-28T00:56:10.582Z,6.20
2023-04-28T00:59:43.078Z,6.18
2023-04-28T01:03:01.185Z,6.14
2023-04-28T01:06:11.247Z,6.11
2023-04-28T01:09:19.848Z,6.04
2023-04-28T01:12:48.561Z,5.96
2023-04-28T01:16:10.246Z,5.82
2023-04-28T01:19:34.534Z,5.73
2023-04-28T01:23:17.954Z,5.63
2023-04-28T01:26:27.769Z,5.54
2023-04-28T01:29:40.828Z,5.44
2023-04-28T01:33:04.635Z,5.38
2023-04-28T01:36:23.791Z,5.32
2023-04-28T01:39:56.009Z,5.32
2023-04-28T01:43:25.641Z,5.28
2023-04-28T01:46:38.461Z,5.20
2023-04-28T01:53:32.266Z,4.99
2023-04-28T01:56:40.784Z,4.90
2023-04-28T01:59:57.626Z,4.74
2023-04-28T02:03:22.848Z,4.66
2023-04-28T02:06:36.059Z,4.57
2023-04-28T02:09:38.862Z,4.51
2023-04-28T02:12:54.701Z,4.45
2023-04-28T02:16:06.327Z,4.43
2023-04-28T02:19:18.497Z,4.40
2023-04-28T02:22:29.477Z,4.36
2023-04-28T02:25:54.590Z,4.28
2023-04-28T02:29:38.732Z,4.25
2023-04-28T02:32:59.994Z,4.21
2023-04-28T02:36:13.453Z,4.16
2023-04-28T02:39:47.629Z,4.06
2023-04-28T02:43:23.583Z,3.99
2023-04-28T02:46:36.780Z,3.94
2023-04-28T02:50:05.595Z,3.84
2023-04-28T02:53:29.757Z,3.72
2023-04-28T02:56:53.438Z,3.58
2023-04-28T03:00:19.787Z,3.44
2023-04-28T03:07:20.410Z,3.23
2023-04-28T03:10:43.634Z,3.10
2023-04-28T03:14:10.771Z,3.01
2023-04-28T03:17:29.392Z,3.06
2023-04-28T03:20:59.191Z,3.06
2023-04-28T03:24:34.027Z,3.02
2023-04-28T03:27:50.280Z,3.23
2023-04-28T03:31:33.275Z,3.12
2023-04-28T03:35:09.418Z,3.07
2023-04-28T03:38:34.870Z,2.94
2023-04-28T03:45:45.177Z,2.98
2023-04-28T03:49:20.842Z,2.91
2023-04-28T03:56:16.720Z,2.95
2023-04-28T04:03:33.783Z,3.02
2023-04-28T04:07:04.577Z,3.07
2023-04-28T04:10:58.548Z,3.06
2023-04-28T04:14:05.127Z,3.04
2023-04-28T04:17:35.746Z,3.05
2023-04-28T04:21:19.299Z,3.13
2023-04-28T04:24:33.706Z,3.21
2023-04-28T04:27:45.348Z,3.29
2023-04-28T04:31:19.677Z,3.44
2023-04-28T04:34:50.490Z,3.55
2023-04-28T04:38:26.566Z,3.63
2023-04-28T04:41:57.816Z,3.73
2023-04-28T04:45:18.722Z,3.83
2023-04-28T04:48:41.586Z,4.00
2023-04-28T04:51:54.722Z,4.14
2023-04-28T04:55:18.858Z,4.33
2023-04-28T04:58:57.943Z,4.53
2023-04-28T05:02:44.567Z,4.83
2023-04-28T05:06:08.894Z,4.99
2023-04-28T05:09:25.624Z,5.15
2023-04-28T05:16:46.482Z,5.35
2023-04-28T05:20:22.868Z,5.52
2023-04-28T05:23:44.889Z,5.62
2023-04-28T05:27:07.269Z,5.74
2023-04-28T05:30:59.062Z,5.80
2023-04-28T05:34:08.255Z,6.03
2023-04-28T05:37:39.873Z,6.25
2023-04-28T05:41:02.927Z,6.54
2023-04-28T05:44:24.865Z,6.81
2023-04-28T05:47:52.366Z,7.02
2023-04-28T05:51:05.060Z,7.65
2023-04-28T05:57:52.331Z,8.99
2023-04-28T06:01:09.522Z,9.51
2023-04-28T06:04:48.275Z,9.37
2023-04-28T06:07:58.088Z,9.07
2023-04-28T06:11:16.750Z,9.41
2023-04-28T06:14:38.381Z,9.73
2023-04-28T06:17:47.436Z,9.93
2023-04-28T06:21:21.612Z,10.92
2023-04-28T06:24:38.040Z,11.70
2023-04-28T06:27:43.738Z,12.15
2023-04-28T06:30:57.112Z,13.14
2023-04-28T06:34:02.920Z,13.94
2023-04-28T06:37:14.778Z,13.42
2023-04-28T06:40:19.236Z,12.29
2023-04-28T06:43:28.756Z,12.34
2023-04-28T06:46:37.412Z,11.56
2023-04-28T06:49:45.402Z,11.64
2023-04-28T06:52:50.519Z,11.22
2023-04-28T06:56:05.444Z,11.66
2023-04-28T06:59:18.856Z,12.04
2023-04-28T07:02:24.651Z,11.95
2023-04-28T07:05:30.472Z,12.35
2023-04-28T07:08:37.047Z,12.47
2023-04-28T07:11:42.891Z,12.50
2023-04-28T07:14:48.141Z,12.71
2023-04-28T07:17:50.725Z,13.21
2023-04-28T07:20:59.199Z,13.39
2023-04-28T07:24:25.429Z,13.18
2023-04-28T07:27:47.203Z,13.10
2023-04-28T07:30:53.980Z,13.23
2023-04-28T07:33:59.020Z,13.16
2023-04-28T07:37:05.491Z,13.58
2023-04-28T07:40:11.679Z,13.96
2023-04-28T07:43:26.646Z,14.59
2023-04-28T07:46:32.379Z,14.42
2023-04-28T07:49:39.938Z,14.65
2023-04-28T07:52:42.423Z,16.22
2023-04-28T07:55:48.883Z,16.87
2023-04-28T07:58:51.910Z,17.48
2023-04-28T08:01:55.278Z,18.65
2023-04-28T08:05:11.395Z,19.57
2023-04-28T08:08:16.766Z,19.91
2023-04-28T08:11:25.644Z,21.13
2023-04-28T08:14:38.938Z,21.13
2023-04-28T08:17:50.305Z,19.54
2023-04-28T08:20:52.862Z,18.23
2023-04-28T08:23:57.905Z,21.25
2023-04-28T08:27:06.274Z,21.69
2023-04-28T08:30:15.363Z,21.18
2023-04-28T08:33:22.780Z,22.79
2023-04-28T08:40:09.833Z,20.60
2023-04-28T08:43:31.308Z,23.12
2023-04-28T08:46:35.832Z,23.26
2023-04-28T08:49:42.163Z,21.85
2023-04-28T08:53:04.419Z,24.01
2023-04-28T08:56:09.029Z,23.02
2023-04-28T08:59:14.910Z,21.82
2023-04-28T09:02:23.168Z,22.12
2023-04-28T09:05:39.911Z,22.96
2023-04-28T09:08:48.381Z,23.58
2023-04-28T09:11:57.236Z,24.51
2023-04-28T09:15:09.333Z,26.82
2023-04-28T09:18:17.333Z,23.13
2023-04-28T09:21:20.122Z,23.37
2023-04-28T09:24:31.597Z,24.45
2023-04-28T09:27:34.207Z,25.04
2023-04-28T09:30:41.317Z,23.63
2023-04-28T09:34:00.663Z,23.04
2023-04-28T09:37:15.685Z,24.71
2023-04-28T09:40:18.525Z,24.67
2023-04-28T09:43:31.498Z,21.10
2023-04-28T09:46:36.217Z,21.49
2023-04-28T09:50:01.765Z,23.48
2023-04-28T09:53:04.482Z,26.48
2023-04-28T09:56:08.174Z,23.22
2023-04-28T09:59:12.286Z,22.46
2023-04-28T10:02:42.744Z,22.08
2023-04-28T10:05:45.364Z,24.79
2023-04-28T10:08:52.155Z,23.47
2023-04-28T10:11:59.871Z,24.58
2023-04-28T10:15:04.963Z,24.63
2023-04-28T10:18:09.047Z,26.71
2023-04-28T10:21:20.486Z,25.12
2023-04-28T10:24:32.878Z,22.66
2023-04-28T10:27:46.061Z,23.94
2023-04-28T10:31:14.410Z,25.79
2023-04-28T10:34:24.450Z,25.38
2023-04-28T10:38:15.213Z,27.38
2023-04-28T10:41:33.455Z,26.42
2023-04-28T10:44:36.175Z,24.27
2023-04-28T10:48:05.580Z,21.63
2023-04-28T10:51:09.957Z,23.02
2023-04-28T10:54:17.856Z,23.63
2023-04-28T10:57:23.506Z,23.34
2023-04-28T11:00:30.973Z,24.19
2023-04-28T11:03:40.209Z,26.95
2023-04-28T11:07:07.944Z,26.61
2023-04-28T11:10:11.046Z,29.06
2023-04-28T11:13:34.596Z,28.90
2023-04-28T11:16:52.834Z,26.50
2023-04-28T11:19:59.593Z,30.07
2023-04-28T11:23:04.610Z,26.96
2023-04-28T11:26:09.661Z,26.69
2023-04-28T11:29:14.332Z,25.33
2023-04-28T11:32:35.332Z,26.60
2023-04-28T11:35:42.802Z,24.37
2023-04-28T11:38:47.060Z,25.26
2023-04-28T11:41:49.985Z,24.72
2023-04-28T11:44:54.344Z,24.55
2023-04-28T11:48:20.492Z,24.73
2023-04-28T11:51:37.042Z,22.92
2023-04-28T11:54:46.561Z,25.09
2023-04-28T11:58:12.868Z,25.17
2023-04-28T12:01:21.425Z,23.98
2023-04-28T12:04:32.004Z,25.74
2023-04-28T12:07:52.295Z,24.67
2023-04-28T12:11:19.617Z,24.74
2023-04-28T12:14:29.363Z,25.42
2023-04-28T12:17:39.691Z,26.97
2023-04-28T12:20:45.698Z,27.47
2023-04-28T12:23:57.636Z,25.36
2023-04-28T12:27:23.867Z,27.86
2023-04-28T12:30:30.028Z,27.04
2023-04-28T12:33:38.619Z,27.64
2023-04-28T12:36:50.097Z,29.51
2023-04-28T12:39:57.836Z,29.77
2023-04-28T12:43:00.478Z,30.15
2023-04-28T12:46:05.701Z,28.64
2023-04-28T12:49:14.107Z,26.90
2023-04-28T12:52:16.918Z,28.43
2023-04-28T12:55:23.064Z,28.63
2023-04-28T12:58:26.219Z,28.63
2023-04-28T13:01:29.712Z,28.50
2023-04-28T13:04:32.400Z,28.56
2023-04-28T13:07:56.219Z,28.76
2023-04-28T13:11:16.249Z,28.87
2023-04-28T13:14:28.694Z,28.15
2023-04-28T13:17:38.957Z,29.58
2023-04-28T13:20:44.648Z,28.91
2023-04-28T13:23:49.523Z,25.80
2023-04-28T13:26:52.972Z,27.02
2023-04-28T13:30:01.366Z,25.62
2023-04-28T13:33:10.471Z,25.97
2023-04-28T13:36:14.860Z,25.80
2023-04-28T13:39:23.197Z,26.05
2023-04-28T13:42:45.868Z,25.63
2023-04-28T13:45:58.148Z,24.96
2023-04-28T13:49:05.077Z,24.65
2023-04-28T13:52:11.323Z,25.13
2023-04-28T13:55:14.300Z,23.70
2023-04-28T13:58:22.188Z,22.27
2023-04-28T14:01:30.513Z,23.66
2023-04-28T14:04:38.936Z,23.73
2023-04-28T14:07:46.841Z,23.88
2023-04-28T14:10:51.363Z,24.10
2023-04-28T14:14:06.171Z,23.35
2023-04-28T14:17:12.691Z,25.30
2023-04-28T14:20:15.343Z,25.10
2023-04-28T14:23:21.907Z,23.72
2023-04-28T14:26:49.898Z,23.37
2023-04-28T14:29:52.715Z,23.98
2023-04-28T14:32:55.290Z,22.63
2023-04-28T14:36:06.389Z,22.65
2023-04-28T14:39:39.582Z,22.49
2023-04-28T14:42:53.585Z,23.39
2023-04-28T14:45:56.425Z,23.44
2023-04-28T14:49:04.461Z,23.84
2023-04-28T14:52:17.796Z,23.93
2023-04-28T14:55:34.232Z,22.47
2023-04-28T14:58:37.075Z,23.39
2023-04-28T15:01:42.895Z,23.65
2023-04-28T15:04:58.394Z,22.62
2023-04-28T15:08:02.450Z,20.97
2023-04-28T15:11:12.046Z,21.61
2023-04-28T15:14:18.419Z,21.72
2023-04-28T15:17:23.427Z,21.29
2023-04-28T15:20:39.053Z,21.10
2023-04-28T15:23:43.799Z,19.82
2023-04-28T15:26:46.417Z,19.01
2023-04-28T15:29:53.454Z,18.90
2023-04-28T15:33:01.768Z,19.19
2023-04-28T15:36:06.392Z,18.75
2023-04-28T15:39:13.306Z,18.30
2023-04-28T15:42:16.580Z,18.35
2023-04-28T15:45:23.988Z,18.09
2023-04-28T15:48:31.569Z,17.68
2023-04-28T15:51:38.939Z,17.59
2023-04-28T15:54:54.465Z,17.34
2023-04-28T15:58:02.742Z,16.87
2023-04-28T16:01:15.102Z,16.55
2023-04-28T16:04:22.715Z,16.25
2023-04-28T16:07:45.435Z,16.25
2023-04-28T16:10:56.442Z,16.28
2023-04-28T16:14:09.832Z,16.29
2023-04-28T16:17:15.629Z,16.15
2023-04-28T16:20:24.699Z,15.76
2023-04-28T16:23:33.622Z,15.69
2023-04-28T16:26:47.056Z,15.53
2023-04-28T16:29:55.055Z,15.16
2023-04-28T16:33:18.123Z,15.20
2023-04-28T16:36:25.036Z,15.01
2023-04-28T16:39:29.909Z,14.98
2023-04-28T16:42:35.637Z,14.97
2023-04-28T16:45:41.436Z,14.86
2023-04-28T16:48:48.844Z,14.80
2023-04-28T16:52:04.988Z,14.67
2023-04-28T16:55:14.611Z,14.55
2023-04-28T16:58:17.243Z,14.55
2023-04-28T17:01:33.748Z,14.42
2023-04-28T17:04:46.031Z,14.35
2023-04-28T17:07:57.385Z,14.26
2023-04-28T17:11:05.856Z,14.15
2023-04-28T17:14:16.263Z,14.01
2023-04-28T17:17:32.811Z,13.99
2023-04-28T17:20:38.495Z,13.86
2023-04-28T17:23:45.726Z,13.83
2023-04-28T17:26:50.579Z,13.74
2023-04-28T17:29:58.396Z,13.60
2023-04-28T17:33:14.062Z,13.56
2023-04-28T17:36:29.023Z,13.36
2023-04-28T17:39:41.699Z,13.31
2023-04-28T17:43:17.364Z,13.13
2023-04-28T17:46:30.665Z,12.92
2023-04-28T17:49:40.150Z,12.74
2023-04-28T17:52:46.329Z,12.62
2023-04-28T17:55:53.851Z,12.50
2023-04-28T17:59:08.976Z,12.35
2023-04-28T18:02:24.732Z,12.20
2023-04-28T18:05:39.032Z,12.07
2023-04-28T18:08:47.651Z,11.94
2023-04-28T18:11:55.725Z,11.81
2023-04-28T18:15:13.741Z,11.67
2023-04-28T18:18:19.401Z,11.52
2023-04-28T18:21:28.747Z,11.44
2023-04-28T18:24:44.099Z,11.30
2023-04-28T18:27:58.773Z,11.20
2023-04-28T18:31:09.089Z,11.10
2023-04-28T18:34:17.356Z,11.03
2023-04-28T18:37:25.022Z,10.87
2023-04-28T18:40:39.414Z,10.78
2023-04-28T18:44:03.298Z,10.78
2023-04-28T18:47:08.900Z,10.69
2023-04-28T18:50:18.709Z,10.61
2023-04-28T18:53:26.007Z,10.93
2023-04-28T18:56:36.542Z,11.07
2023-04-28T18:59:51.955Z,10.95
2023-04-28T19:03:06.132Z,10.84
2023-04-28T19:06:11.991Z,10.79
2023-04-28T19:09:19.182Z,10.64
2023-04-28T19:12:22.173Z,10.64
2023-04-28T19:15:33.140Z,10.74
2023-04-28T19:18:47.836Z,10.59
2023-04-28T19:22:45.584Z,10.46
2023-04-28T19:29:33.996Z,10.13
2023-04-28T19:32:40.084Z,9.93
2023-04-28T19:36:16.611Z,9.84
2023-04-28T19:39:28.697Z,9.77
2023-04-28T19:42:39.080Z,9.62
2023-04-28T19:45:51.314Z,9.56
2023-04-28T19:49:15.154Z,9.49
2023-04-28T19:52:24.907Z,9.39
2023-04-28T19:55:34.428Z,9.31
2023-04-28T20:02:06.903Z,9.31
2023-04-28T20:05:14.653Z,9.25
2023-04-28T20:08:28.365Z,9.33
2023-04-28T20:11:38.615Z,9.30
2023-04-28T20:14:49.510Z,9.28
2023-04-28T20:18:03.991Z,9.30
2023-04-28T20:21:16.096Z,9.30
2023-04-28T20:24:26.843Z,9.24
2023-04-28T20:27:44.495Z,9.22
2023-04-28T20:30:50.981Z,9.31
2023-04-28T20:34:04.789Z,9.42
2023-04-28T20:37:24.813Z,9.30
2023-04-28T20:40:32.355Z,9.19
2023-04-28T20:43:47.480Z,9.11
2023-04-28T20:47:04.470Z,9.10
2023-04-28T20:50:17.638Z,9.06
2023-04-28T20:53:29.253Z,9.16
2023-04-28T20:56:55.134Z,9.08
2023-04-28T21:00:03.802Z,9.00
2023-04-28T21:03:15.952Z,8.99
2023-04-28T21:06:30.802Z,8.98
2023-04-28T21:09:49.638Z,8.92
2023-04-28T21:13:02.498Z,8.98
2023-04-28T21:16:21.194Z,8.96
2023-04-28T21:19:33.467Z,8.91
2023-04-28T21:22:40.223Z,8.88
2023-04-28T21:25:44.221Z,8.90
2023-04-28T21:28:54.998Z,8.83
2023-04-28T21:32:01.386Z,8.79
2023-04-28T21:35:09.476Z,8.67
2023-04-28T21:38:18.820Z,8.61
2023-04-28T21:41:29.663Z,8.56
2023-04-28T21:44:42.123Z,8.58
2023-04-28T21:48:00.203Z,8.63
2023-04-28T21:51:09.872Z,8.67
2023-04-28T21:54:18.782Z,8.65
2023-04-28T21:57:38.139Z,8.63
2023-04-28T22:01:23.671Z,8.63
2023-04-28T22:04:39.137Z,8.66
2023-04-28T22:07:51.727Z,8.65
2023-04-28T22:18:01.306Z,8.58
2023-04-28T22:21:19.746Z,8.66
2023-04-28T22:24:30.788Z,8.67
2023-04-28T22:27:42.182Z,8.64
2023-04-28T22:30:46.787Z,8.64
2023-04-28T22:33:54.808Z,8.66
2023-04-28T22:37:00.168Z,8.63
2023-04-28T22:40:15.376Z,8.58
2023-04-28T22:43:30.718Z,8.63
2023-04-28T22:46:50.803Z,8.65
2023-04-28T22:50:16.336Z,8.63
2023-04-28T22:54:00.566Z,8.65
2023-04-28T22:57:04.861Z,8.63
2023-04-28T23:00:20.753Z,8.59
2023-04-28T23:07:17.015Z,8.55
2023-04-28T23:10:26.453Z,8.53
2023-04-28T23:13:43.951Z,8.51
2023-04-28T23:17:04.487Z,8.52
2023-04-28T23:20:19.516Z,8.51
2023-04-28T23:23:38.263Z,8.54
2023-04-28T23:26:52.138Z,8.59
2023-04-28T23:30:13.970Z,8.64
2023-04-28T23:33:32.142Z,8.67
2023-04-28T23:36:53.649Z,8.69
2023-04-28T23:43:29.199Z,8.71
2023-04-28T23:46:44.109Z,8.69
2023-04-28T23:53:52.280Z,8.70
2023-04-28T23:57:05.092Z,8.67
